Latest Weather Observations for Cape Flattery

IDQ60801

Issued at 1:02 pm EST Thursday 24 August 2017 (issued every 30 minutes, with the page automatically refreshed every 10 minutes)

About weather observations | Map of weather stations | Latest weather observations for QLD | Other Formats
Station Details ID: 031213 Name: CAPE FLATTERY Lat: -14.97 Lon: 145.31 Height: 18.5 m
Data from the previous 72 hours. | See also: Recent months at Cape Flattery
Date/Time
EST
Temp
°C
App
Temp
°C
Dew
Point
°C
Rel
Hum
%
Delta-T
°C
Wind Press
QNH
hPa
Press
MSL
hPa
Rain since
9am
mm
Dir  Spd
km/h
Gust
km/h
Spd
kts
Gust
kts
24/01:00pm 27.0 23.7 15.1 48 7.2 SE 26 37 14 20 1015.4 1015.3 0.0
24/12:30pm 26.8 23.5 16.1 52 6.6 SE 28 35 15 19 1015.8 1015.7 0.0
24/12:00pm 27.3 24.6 16.6 52 6.6 SE 26 33 14 18 1016.2 1016.1 0.0
24/11:30am 26.7 23.7 16.9 55 6.1 SE 28 35 15 19 1016.7 1016.6 0.0
24/11:00am 27.4 24.6 17.3 54 6.3 SE 28 35 15 19 1017.0 1016.9 0.0
24/10:30am 27.0 24.2 16.3 52 6.6 SE 26 37 14 20 1017.2 1017.1 0.0
24/10:00am 26.3 22.8 15.4 51 6.6 SE 28 37 15 20 1017.5 1017.4 0.0
24/09:30am 26.0 23.1 16.0 54 6.1 SE 26 33 14 18 1017.5 1017.4 0.0
24/09:00am 25.3 22.3 15.9 56 5.7 SE 26 33 14 18 1017.5 1017.4 0.0
24/08:30am 24.8 22.6 17.0 62 4.8 SE 24 32 13 17 1017.3 1017.2 0.0
24/08:00am 24.5 22.4 16.2 60 5.1 SE 22 28 12 15 1017.1 1017.0 0.0
24/07:30am 23.6 21.0 15.9 62 4.7 SE 24 32 13 17 1017.0 1016.9 0.0
24/07:00am 22.7 21.7 16.5 68 3.8 ESE 17 26 9 14 1016.8 1016.7 0.0
24/06:30am 22.0 20.7 15.8 68 3.7 ESE 17 20 9 11 1016.6 1016.5 0.0
24/06:00am 22.4 20.7 15.7 66 4.0 SE 19 26 10 14 1016.2 1016.1 0.0
24/05:30am 22.7 21.1 16.5 68 3.8 SE 20 28 11 15 1016.1 1016.0 0.0
24/05:00am 22.3 20.7 16.1 68 3.7 SE 19 26 10 14 1015.8 1015.7 0.0
24/04:30am 22.9 21.1 16.9 69 3.7 SE 22 28 12 15 1015.8 1015.7 0.0
24/04:00am 22.4 21.3 16.4 69 3.6 SE 17 24 9 13 1015.8 1015.7 0.0
24/03:30am 22.7 21.2 16.7 69 3.7 SE 20 26 11 14 1015.8 1015.7 0.0
24/03:00am 22.7 21.1 16.5 68 3.8 SE 20 28 11 15 1016.0 1015.9 0.0
24/02:30am 22.7 21.0 16.3 67 3.9 SE 20 30 11 16 1016.2 1016.1 0.0
24/02:00am 22.7 21.3 16.5 68 3.8 SE 19 26 10 14 1016.5 1016.4 0.0
24/01:30am 22.9 21.3 16.4 67 4.0 SE 20 30 11 16 1016.7 1016.6 0.0
24/01:00am 23.0 21.0 16.5 67 4.0 SE 22 32 12 17 1017.0 1016.9 0.0
24/12:30am 23.0 21.7 16.8 68 3.8 ESE 19 24 10 13 1017.1 1017.0 0.0
24/12:00am 23.2 21.7 16.7 67 4.0 SE 20 28 11 15 1017.3 1017.2 0.0
 
Date/Time
EST
Temp
°C
App
Temp
°C
Dew
Point
°C
Rel
Hum
%
Delta-T
°C
Wind Press
QNH
hPa
Press
MSL
hPa
Rain since
9am
mm
Dir  Spd
km/h
Gust
km/h
Spd
kts
Gust
kts
23/11:30pm 23.3 21.6 17.1 68 3.8 ESE 22 28 12 15 1017.4 1017.3 0.0
23/11:00pm 23.1 20.7 16.4 66 4.1 SE 24 32 13 17 1017.5 1017.4 0.0
23/10:30pm 23.0 21.7 16.8 68 3.8 SE 19 28 10 15 1017.4 1017.3 0.0
23/10:00pm 23.1 21.5 16.6 67 4.0 SE 20 28 11 15 1017.3 1017.2 0.0
23/09:30pm 23.3 21.9 17.1 68 3.8 SE 20 32 11 17 1017.2 1017.1 0.0
23/09:00pm 23.3 22.2 17.3 69 3.7 ESE 19 26 10 14 1017.2 1017.1 0.0
23/08:30pm 23.2 21.8 17.0 68 3.8 SE 20 28 11 15 1017.1 1017.0 0.0
23/08:00pm 23.2 22.4 17.2 69 3.7 SE 17 28 9 15 1016.8 1016.7 0.0
23/07:30pm 23.3 21.7 16.6 66 4.1 SE 20 28 11 15 1016.7 1016.6 0.0
23/07:00pm 23.2 21.6 16.5 66 4.1 SE 20 28 11 15 1016.4 1016.3 0.0
23/06:30pm 23.3 21.7 16.6 66 4.1 SE 20 33 11 18 1016.2 1016.1 0.0
23/06:00pm 23.7 21.3 16.5 64 4.4 SE 24 32 13 17 1016.1 1016.0 0.0
23/05:30pm 24.6 22.3 16.6 61 4.9 SE 24 33 13 18 1016.1 1016.0 0.0
23/05:00pm 25.1 22.2 16.0 57 5.5 SE 26 35 14 19 1015.9 1015.8 0.0
23/04:30pm 25.6 23.1 17.0 59 5.3 SE 26 35 14 19 1015.8 1015.7 0.0
23/04:00pm 26.1 24.0 17.2 58 5.5 SE 24 35 13 19 1015.8 1015.7 0.0
23/03:30pm 26.3 23.9 17.4 58 5.6 SE 26 33 14 18 1015.8 1015.7 0.0
23/03:00pm 26.6 23.7 17.1 56 5.9 SE 28 37 15 20 1016.0 1015.9 0.0
23/02:30pm 27.0 23.9 16.6 53 6.4 SE 28 37 15 20 1016.3 1016.2 0.0
23/02:00pm 27.3 24.2 16.6 52 6.6 SE 28 37 15 20 1016.6 1016.5 0.0
23/01:30pm 27.9 24.9 17.7 53 6.5 SE 30 39 16 21 1016.8 1016.7 0.0
23/01:00pm 27.0 23.7 16.9 54 6.3 SE 30 43 16 23 1017.2 1017.1 0.0
23/12:30pm 27.6 24.6 17.7 54 6.3 SE 30 37 16 20 1017.4 1017.3 0.0
23/12:00pm 27.4 23.6 16.7 52 6.6 SE 32 39 17 21 1017.7 1017.6 0.0
23/11:30am 27.2 24.4 17.4 55 6.2 SE 28 43 15 23 1018.0 1017.9 0.0
23/11:00am 27.1 23.7 16.7 53 6.4 SE 30 39 16 21 1018.4 1018.3 0.0
23/10:30am 27.2 24.6 17.7 56 6.0 SE 28 39 15 21 1018.7 1018.6 0.0
23/10:00am 26.8 24.3 18.1 59 5.5 SE 28 37 15 20 1018.8 1018.7 0.0
23/09:30am 26.1 22.5 17.2 58 5.6 ESE 32 41 17 22 1018.8 1018.7 0.0
23/09:00am 25.3 23.8 18.5 66 4.3 SE 24 33 13 18 1018.4 1018.3 0.0
23/08:30am 25.3 23.7 17.5 62 4.9 SE 22 32 12 17 1018.1 1018.0 0.0
23/08:00am 24.2 23.1 17.7 67 4.1 SE 20 30 11 16 1017.7 1017.6 0.0
23/07:30am 24.0 22.9 17.3 66 4.2 SE 19 26 10 14 1017.5 1017.4 0.0
23/07:00am 23.2 21.9 17.2 69 3.7 SE 20 28 11 15 1017.2 1017.1 0.0
23/06:30am 22.8 21.5 17.3 71 3.4 SE 20 30 11 16 1016.7 1016.6 0.0
23/06:00am 22.8 21.4 17.0 70 3.6 SE 20 28 11 15 1016.6 1016.5 0.0
23/05:30am 22.9 21.5 17.1 70 3.6 SE 20 30 11 16 1016.5 1016.4 0.0
23/05:00am 22.9 21.7 17.6 72 3.3 SE 20 32 11 17 1016.3 1016.2 0.0
23/04:30am 22.8 21.6 17.5 72 3.3 SE 20 28 11 15 1016.4 1016.3 0.0
23/04:00am 22.5 22.0 17.8 75 2.9 ESE 17 24 9 13 1016.4 1016.3 0.0
23/03:30am 22.8 22.5 18.3 76 2.8 ESE 17 26 9 14 1016.5 1016.4 0.0
23/03:00am 22.7 22.5 18.5 77 2.6 ESE 17 26 9 14 1016.5 1016.4 0.0
23/02:30am 23.0 22.3 18.3 75 3.0 ESE 19 26 10 14 1016.6 1016.5 0.0
23/02:00am 23.1 22.5 18.4 75 3.0 ESE 19 24 10 13 1017.0 1016.9 0.0
23/01:30am 23.0 22.6 18.1 74 3.1 ESE 17 24 9 13 1017.3 1017.2 0.0
23/01:00am 23.0 22.2 17.9 73 3.2 ESE 19 28 10 15 1017.6 1017.5 0.0
23/12:30am 23.0 22.1 17.7 72 3.3 ESE 19 26 10 14 1017.8 1017.7 0.0
23/12:00am 23.0 22.1 17.7 72 3.3 ESE 19 26 10 14 1018.1 1018.0 0.0
 
Date/Time
EST
Temp
°C
App
Temp
°C
Dew
Point
°C
Rel
Hum
%
Delta-T
°C
Wind Press
QNH
hPa
Press
MSL
hPa
Rain since
9am
mm
Dir  Spd
km/h
Gust
km/h
Spd
kts
Gust
kts
22/11:30pm 23.2 22.3 18.3 74 3.1 SE 20 28 11 15 1018.1 1018.0 0.0
22/11:00pm 23.3 21.6 18.0 72 3.3 SE 24 35 13 19 1018.1 1018.0 0.0
22/10:30pm 23.3 21.4 17.7 71 3.5 ESE 24 35 13 19 1018.2 1018.1 0.0
22/10:00pm 23.2 22.0 17.4 70 3.6 ESE 20 35 11 19 1018.1 1018.0 0.0
22/09:30pm 23.2 21.7 17.7 71 3.4 ESE 22 32 12 17 1018.0 1017.9 0.0
22/09:00pm 23.1 22.0 17.3 70 3.6 ESE 19 24 10 13 1017.9 1017.8 0.0
22/08:30pm 23.3 21.9 17.1 68 3.8 ESE 20 30 11 16 1017.7 1017.6 0.0
22/08:00pm 23.2 21.7 16.7 67 4.0 ESE 20 28 11 15 1017.6 1017.5 0.0
22/07:30pm 23.3 21.4 16.8 67 4.0 SE 22 32 12 17 1017.4 1017.3 0.0
22/07:00pm 23.3 21.4 16.8 67 4.0 SE 22 32 12 17 1017.1 1017.0 0.0
22/06:30pm 23.4 21.3 17.2 68 3.8 SE 24 32 13 17 1016.6 1016.5 0.0
22/06:00pm 23.7 21.9 17.0 66 4.1 SE 22 33 12 18 1016.2 1016.1 0.0
22/05:30pm 24.5 22.4 17.2 63 4.5 SE 24 37 13 20 1015.9 1015.8 0.0
22/05:00pm 25.3 22.6 17.5 62 4.9 SE 28 39 15 21 1015.8 1015.7 0.0
22/04:30pm 25.7 23.5 16.8 58 5.5 SE 24 39 13 21 1015.5 1015.4 0.0
22/04:00pm 26.0 22.9 16.5 55 5.9 SE 28 37 15 20 1015.5 1015.4 0.0
22/03:30pm 26.3 23.7 16.8 56 5.9 SE 26 37 14 20 1015.4 1015.3 0.0
22/03:00pm 26.6 23.7 17.1 56 5.9 SE 28 37 15 20 1015.4 1015.3 0.0
22/02:30pm 26.5 23.3 16.4 53 6.2 SE 28 35 15 19 1015.4 1015.3 0.0
22/02:00pm 27.1 24.3 16.4 52 6.6 SE 26 35 14 19 1015.6 1015.5 0.0
22/01:30pm 27.0 23.9 16.6 53 6.4 SE 28 39 15 21 1015.8 1015.7 0.0
22/01:00pm 27.2 23.8 16.8 53 6.5 SE 30 39 16 21 1016.0 1015.9 0.0
22/12:30pm 26.7 23.2 16.6 54 6.3 SSE 30 39 16 21 1016.3 1016.2 0.0
22/12:00pm 26.6 23.6 16.8 55 6.1 SE 28 35 15 19 1016.9 1016.8 0.0
22/11:30am 26.5 23.3 16.4 53 6.2 SE 28 39 15 21 1017.4 1017.3 0.0
22/11:00am 26.6 23.0 17.1 56 5.9 SE 32 43 17 23 1017.5 1017.4 0.0
22/10:30am 26.4 22.4 16.6 55 6.1 SE 33 44 18 24 1017.7 1017.6 0.0
22/10:00am 26.6 23.8 17.4 57 5.8 SE 28 44 15 24 1017.8 1017.7 0.0
22/09:30am 26.1 22.6 16.4 55 6.0 SE 30 43 16 23 1017.9 1017.8 0.0
22/09:00am 25.4 21.1 15.4 54 6.0 SE 32 43 17 23 1017.7 1017.6 0.0
22/08:30am 24.9 21.4 15.5 56 5.7 SE 28 39 15 21 1017.6 1017.5 0.0
22/08:00am 24.4 20.6 14.8 55 5.7 SE 28 37 15 20 1017.4 1017.3 0.0
22/07:30am 23.9 21.3 16.9 65 4.3 SE 26 35 14 19 1017.1 1017.0 0.0
22/07:00am 22.4 20.5 16.7 70 3.5 SE 22 30 12 16 1016.8 1016.7 0.0
22/06:30am 22.3 20.2 16.3 69 3.6 SE 22 30 12 16 1016.6 1016.5 0.0
22/06:00am 22.5 20.1 16.3 68 3.8 SE 24 33 13 18 1016.4 1016.3 0.0
22/05:30am 22.4 19.7 15.7 66 4.0 SE 24 32 13 17 1016.1 1016.0 0.0
22/05:00am 22.4 20.6 16.0 67 3.9 SE 20 30 11 16 1015.9 1015.8 0.0
22/04:30am 22.7 21.1 16.5 68 3.8 SE 20 28 11 15 1015.9 1015.8 0.0
22/04:00am 22.4 19.8 15.0 63 4.4 SE 22 30 12 16 1016.0 1015.9 0.0
22/03:30am 22.5 20.5 15.6 65 4.1 SE 20 26 11 14 1016.3 1016.2 0.0
22/03:00am 22.6 20.4 15.0 62 4.5 SE 20 32 11 17 1016.5 1016.4 0.0
22/02:30am 22.3 20.1 14.9 63 4.4 SE 20 28 11 15 1016.7 1016.6 0.0
22/02:00am 22.8 19.1 13.8 57 5.2 SE 26 35 14 19 1016.9 1016.8 0.0
22/01:30am 23.1 20.2 14.1 57 5.3 SE 22 35 12 19 1017.1 1017.0 0.0
22/01:00am 22.9 20.2 14.7 60 4.8 SE 22 35 12 19 1017.4 1017.3 0.0
22/12:30am 22.9 19.2 12.8 53 5.8 SE 24 33 13 18 1017.8 1017.7 0.0
22/12:00am 22.8 20.2 13.3 55 5.5 ESE 19 28 10 15 1018.1 1018.0 0.0
 
Date/Time
EST
Temp
°C
App
Temp
°C
Dew
Point
°C
Rel
Hum
%
Delta-T
°C
Wind Press
QNH
hPa
Press
MSL
hPa
Rain since
9am
mm
Dir  Spd
km/h
Gust
km/h
Spd
kts
Gust
kts
21/11:30pm 22.9 19.2 13.9 57 5.3 SE 26 37 14 20 1018.3 1018.2 0.0
21/11:00pm 23.1 20.3 14.4 58 5.1 ESE 22 35 12 19 1018.3 1018.2 0.0
21/10:30pm 22.9 19.5 13.7 56 5.4 SE 24 33 13 18 1018.3 1018.2 0.0
21/10:00pm 22.7 18.5 13.5 56 5.3 SE 28 39 15 21 1018.3 1018.2 0.0
21/09:30pm 22.7 18.2 12.6 53 5.8 SE 28 37 15 20 1018.1 1018.0 0.0
21/09:00pm 22.6 18.4 13.4 56 5.3 SE 28 37 15 20 1018.0 1017.9 0.0
21/08:30pm 22.5 19.0 13.3 56 5.3 SE 24 35 13 19 1017.8 1017.7 0.0
21/08:00pm 22.4 18.8 12.9 55 5.4 SE 24 37 13 20 1017.4 1017.3 0.0
21/07:30pm 22.4 18.6 13.7 58 5.1 SE 26 33 14 18 1017.1 1017.0 0.0
21/07:00pm 22.2 17.3 12.7 55 5.4 SE 30 39 16 21 1016.9 1016.8 0.0
21/06:30pm 22.6 18.8 13.7 57 5.2 SE 26 37 14 20 1016.5 1016.4 0.0
21/06:00pm 22.6 18.3 13.1 55 5.5 SE 28 39 15 21 1016.2 1016.1 0.0
21/05:30pm 23.4 19.3 13.8 54 5.6 SE 28 41 15 22 1015.9 1015.8 0.0
21/05:00pm 24.3 20.2 13.8 52 6.2 SE 28 37 15 20 1015.7 1015.6 0.0
21/04:30pm 24.5 19.7 14.0 52 6.2 SE 32 43 17 23 1015.4 1015.3 0.0
21/04:00pm 24.5 19.7 14.0 52 6.2 SE 32 43 17 23 1015.3 1015.2 0.0
21/03:30pm 24.5 20.2 14.3 53 6.0 SE 30 39 16 21 1015.2 1015.1 0.0
21/03:00pm 26.3 21.7 14.7 48 7.0 SE 32 43 17 23 1015.0 1014.9 0.0
21/02:30pm 25.7 20.5 12.9 45 7.4 SE 32 43 17 23 1015.2 1015.1 0.0
21/02:00pm 25.8 20.2 13.3 46 7.3 SE 35 46 19 25 1015.3 1015.2 0.0
21/01:30pm 26.3 21.1 13.4 45 7.6 SE 33 43 18 23 1015.6 1015.5 0.0

Other Formats:

Comma delimited format used in spreadsheet applications
http://www.bom.gov.au/fwo/IDQ60801/IDQ60801.94188.axf

JavaScript Object Notation format (JSON) in row-major order
http://www.bom.gov.au/fwo/IDQ60801/IDQ60801.94188.json